sensor_id;sensor_type;location;lat;lon;timestamp;temperature;humidity
76759;DHT22;65701;45.588;5.186;2023-09-12T04:26:13;22.63;43.51
76759;DHT22;65701;45.588;5.186;2023-09-12T04:28:39;22.67;43.65
76759;DHT22;65701;45.588;5.186;2023-09-12T04:31:04;22.65;43.62
76759;DHT22;65701;45.588;5.186;2023-09-12T04:33:30;22.65;43.55
76759;DHT22;65701;45.588;5.186;2023-09-12T04:35:58;22.64;43.83
76759;DHT22;65701;45.588;5.186;2023-09-12T04:38:24;22.63;43.92
76759;DHT22;65701;45.588;5.186;2023-09-12T04:40:54;22.61;43.85
76759;DHT22;65701;45.588;5.186;2023-09-12T04:43:19;22.60;43.83
76759;DHT22;65701;45.588;5.186;2023-09-12T04:45:45;22.60;44.00
76759;DHT22;65701;45.588;5.186;2023-09-12T04:48:10;22.60;44.04
76759;DHT22;65701;45.588;5.186;2023-09-12T04:50:41;22.61;43.99
76759;DHT22;65701;45.588;5.186;2023-09-12T04:53:07;22.60;43.96
76759;DHT22;65701;45.588;5.186;2023-09-12T04:55:32;22.59;43.95
76759;DHT22;65701;45.588;5.186;2023-09-12T04:58:00;22.57;44.02
76759;DHT22;65701;45.588;5.186;2023-09-12T05:00:25;22.59;44.07
76759;DHT22;65701;45.588;5.186;2023-09-12T05:02:51;22.53;44.09
76759;DHT22;65701;45.588;5.186;2023-09-12T05:05:16;22.50;44.21
76759;DHT22;65701;45.588;5.186;2023-09-12T05:07:42;22.50;44.24
76759;DHT22;65701;45.588;5.186;2023-09-12T05:10:07;22.43;44.44
76759;DHT22;65701;45.588;5.186;2023-09-12T05:12:33;22.39;44.53
76759;DHT22;65701;45.588;5.186;2023-09-12T05:14:58;22.37;44.75
76759;DHT22;65701;45.588;5.186;2023-09-12T05:17:24;22.36;44.76
76759;DHT22;65701;45.588;5.186;2023-09-12T05:19:49;22.35;44.80
76759;DHT22;65701;45.588;5.186;2023-09-12T05:22:15;22.33;44.86
76759;DHT22;65701;45.588;5.186;2023-09-12T05:24:40;22.33;44.81
76759;DHT22;65701;45.588;5.186;2023-09-12T05:27:06;22.33;44.99
76759;DHT22;65701;45.588;5.186;2023-09-12T05:29:31;22.35;44.91
76759;DHT22;65701;45.588;5.186;2023-09-12T05:31:57;22.37;44.90
76759;DHT22;65701;45.588;5.186;2023-09-12T05:34:22;22.39;44.79
76759;DHT22;65701;45.588;5.186;2023-09-12T05:36:48;22.37;44.85
76759;DHT22;65701;45.588;5.186;2023-09-12T05:39:13;22.40;44.79
76759;DHT22;65701;45.588;5.186;2023-09-12T05:41:41;22.44;44.72
76759;DHT22;65701;45.588;5.186;2023-09-12T05:44:07;22.47;44.63
76759;DHT22;65701;45.588;5.186;2023-09-12T05:46:32;22.52;44.45
76759;DHT22;65701;45.588;5.186;2023-09-12T05:48:58;22.50;44.41
76759;DHT22;65701;45.588;5.186;2023-09-12T05:51:23;22.60;44.29
76759;DHT22;65701;45.588;5.186;2023-09-12T05:53:48;22.64;44.30
76759;DHT22;65701;45.588;5.186;2023-09-12T05:56:15;22.65;44.19
76759;DHT22;65701;45.588;5.186;2023-09-12T05:58:40;22.67;44.13
76759;DHT22;65701;45.588;5.186;2023-09-12T06:01:08;22.64;44.05
76759;DHT22;65701;45.588;5.186;2023-09-12T06:03:34;22.65;44.03
76759;DHT22;65701;45.588;5.186;2023-09-12T06:05:59;22.61;44.04
76759;DHT22;65701;45.588;5.186;2023-09-12T06:08:25;22.63;43.98
76759;DHT22;65701;45.588;5.186;2023-09-12T06:10:50;22.61;43.96
76759;DHT22;65701;45.588;5.186;2023-09-12T06:13:19;22.61;43.83
76759;DHT22;65701;45.588;5.186;2023-09-12T06:15:45;22.60;43.79
76759;DHT22;65701;45.588;5.186;2023-09-12T06:18:10;22.61;43.71
76759;DHT22;65701;45.588;5.186;2023-09-12T06:20:36;22.61;43.65
76759;DHT22;65701;45.588;5.186;2023-09-12T06:23:02;22.63;43.48
76759;DHT22;65701;45.588;5.186;2023-09-12T06:25:29;22.67;43.51
76759;DHT22;65701;45.588;5.186;2023-09-12T06:27:54;22.67;43.56
76759;DHT22;65701;45.588;5.186;2023-09-12T06:30:20;22.70;43.59
76759;DHT22;65701;45.588;5.186;2023-09-12T06:32:45;22.72;43.65
76759;DHT22;65701;45.588;5.186;2023-09-12T06:35:11;22.77;43.62
76759;DHT22;65701;45.588;5.186;2023-09-12T06:37:39;22.80;43.57
76759;DHT22;65701;45.588;5.186;2023-09-12T06:40:06;22.78;43.52
76759;DHT22;65701;45.588;5.186;2023-09-12T06:42:32;22.80;43.42
76759;DHT22;65701;45.588;5.186;2023-09-12T06:44:57;22.86;43.32
76759;DHT22;65701;45.588;5.186;2023-09-12T06:47:23;22.88;43.25
76759;DHT22;65701;45.588;5.186;2023-09-12T06:49:48;22.94;43.23
76759;DHT22;65701;45.588;5.186;2023-09-12T06:52:14;22.94;43.17
76759;DHT22;65701;45.588;5.186;2023-09-12T06:54:39;22.98;43.21
76759;DHT22;65701;45.588;5.186;2023-09-12T06:57:05;23.02;43.11
76759;DHT22;65701;45.588;5.186;2023-09-12T06:59:30;23.08;43.13
76759;DHT22;65701;45.588;5.186;2023-09-12T07:01:56;23.08;43.15
76759;DHT22;65701;45.588;5.186;2023-09-12T07:04:21;23.09;43.28
76759;DHT22;65701;45.588;5.186;2023-09-12T07:06:47;23.09;43.27
76759;DHT22;65701;45.588;5.186;2023-09-12T07:09:12;23.11;43.43
76759;DHT22;65701;45.588;5.186;2023-09-12T07:11:42;23.12;43.51
76759;DHT22;65701;45.588;5.186;2023-09-12T07:14:11;23.15;43.64
76759;DHT22;65701;45.588;5.186;2023-09-12T07:16:37;23.15;43.97
76759;DHT22;65701;45.588;5.186;2023-09-12T07:19:02;23.15;44.13
76759;DHT22;65701;45.588;5.186;2023-09-12T07:21:29;23.22;44.31
76759;DHT22;65701;45.588;5.186;2023-09-12T07:23:55;23.25;44.67
76759;DHT22;65701;45.588;5.186;2023-09-12T07:26:20;23.35;44.71
76759;DHT22;65701;45.588;5.186;2023-09-12T07:28:46;23.41;44.76
76759;DHT22;65701;45.588;5.186;2023-09-12T07:31:11;23.50;44.83
76759;DHT22;65701;45.588;5.186;2023-09-12T07:33:37;23.61;44.76
76759;DHT22;65701;45.588;5.186;2023-09-12T07:36:03;23.70;44.72
76759;DHT22;65701;45.588;5.186;2023-09-12T07:38:28;23.80;44.67
76759;DHT22;65701;45.588;5.186;2023-09-12T07:40:56;23.88;44.66
76759;DHT22;65701;45.588;5.186;2023-09-12T07:43:22;23.97;44.43
76759;DHT22;65701;45.588;5.186;2023-09-12T07:45:49;24.02;44.45
76759;DHT22;65701;45.588;5.186;2023-09-12T07:48:15;24.08;44.45
76759;DHT22;65701;45.588;5.186;2023-09-12T07:50:40;24.14;44.50
76759;DHT22;65701;45.588;5.186;2023-09-12T07:53:06;24.19;44.69
76759;DHT22;65701;45.588;5.186;2023-09-12T07:55:32;24.22;44.70
76759;DHT22;65701;45.588;5.186;2023-09-12T07:58:03;24.30;44.48
76759;DHT22;65701;45.588;5.186;2023-09-12T08:00:28;24.37;44.19
76759;DHT22;65701;45.588;5.186;2023-09-12T08:02:54;24.48;43.86
76759;DHT22;65701;45.588;5.186;2023-09-12T08:05:20;24.63;43.72
76759;DHT22;65701;45.588;5.186;2023-09-12T08:07:45;24.84;43.98
76759;DHT22;65701;45.588;5.186;2023-09-12T08:10:11;24.97;43.84
76759;DHT22;65701;45.588;5.186;2023-09-12T08:12:36;25.07;44.07
76759;DHT22;65701;45.588;5.186;2023-09-12T08:15:04;25.14;44.02
76759;DHT22;65701;45.588;5.186;2023-09-12T08:17:30;25.19;44.16
76759;DHT22;65701;45.588;5.186;2023-09-12T08:19:56;25.26;44.22
76759;DHT22;65701;45.588;5.186;2023-09-12T08:22:22;25.38;44.20
76759;DHT22;65701;45.588;5.186;2023-09-12T08:24:47;25.58;44.42
76759;DHT22;65701;45.588;5.186;2023-09-12T08:27:13;25.83;44.07
76759;DHT22;65701;45.588;5.186;2023-09-12T08:29:38;25.91;43.65
76759;DHT22;65701;45.588;5.186;2023-09-12T08:32:04;26.04;43.13
76759;DHT22;65701;45.588;5.186;2023-09-12T08:34:30;26.26;43.67
76759;DHT22;65701;45.588;5.186;2023-09-12T08:36:55;26.52;43.40
76759;DHT22;65701;45.588;5.186;2023-09-12T08:39:25;26.75;43.11
76759;DHT22;65701;45.588;5.186;2023-09-12T08:41:51;26.97;43.48
76759;DHT22;65701;45.588;5.186;2023-09-12T08:44:18;27.31;43.70
76759;DHT22;65701;45.588;5.186;2023-09-12T08:46:45;27.59;42.84
76759;DHT22;65701;45.588;5.186;2023-09-12T08:49:11;27.85;42.78
76759;DHT22;65701;45.588;5.186;2023-09-12T08:51:40;27.93;42.21
76759;DHT22;65701;45.588;5.186;2023-09-12T08:54:07;27.93;41.73
76759;DHT22;65701;45.588;5.186;2023-09-12T08:56:34;27.97;41.81
76759;DHT22;65701;45.588;5.186;2023-09-12T08:59:01;28.13;42.29
76759;DHT22;65701;45.588;5.186;2023-09-12T09:01:30;28.38;42.77
76759;DHT22;65701;45.588;5.186;2023-09-12T09:03:57;28.61;42.33
76759;DHT22;65701;45.588;5.186;2023-09-12T09:06:23;28.82;42.28
76759;DHT22;65701;45.588;5.186;2023-09-12T09:08:49;29.02;42.24
76759;DHT22;65701;45.588;5.186;2023-09-12T09:11:16;29.20;42.29
76759;DHT22;65701;45.588;5.186;2023-09-12T09:13:42;29.30;41.81
76759;DHT22;65701;45.588;5.186;2023-09-12T09:16:18;29.47;41.91
76759;DHT22;65701;45.588;5.186;2023-09-12T09:18:55;29.63;42.50
76759;DHT22;65701;45.588;5.186;2023-09-12T09:21:23;29.80;42.35
76759;DHT22;65701;45.588;5.186;2023-09-12T09:23:53;29.90;41.96
76759;DHT22;65701;45.588;5.186;2023-09-12T09:26:19;30.02;42.06
76759;DHT22;65701;45.588;5.186;2023-09-12T09:28:45;30.13;41.91
76759;DHT22;65701;45.588;5.186;2023-09-12T09:31:13;30.24;41.69
76759;DHT22;65701;45.588;5.186;2023-09-12T09:33:41;30.37;41.86
76759;DHT22;65701;45.588;5.186;2023-09-12T09:36:14;30.54;41.31
76759;DHT22;65701;45.588;5.186;2023-09-12T09:38:40;30.62;41.11
76759;DHT22;65701;45.588;5.186;2023-09-12T09:41:06;30.74;40.46
76759;DHT22;65701;45.588;5.186;2023-09-12T09:43:32;30.80;40.65
76759;DHT22;65701;45.588;5.186;2023-09-12T09:45:58;30.85;40.17
76759;DHT22;65701;45.588;5.186;2023-09-12T09:48:25;30.99;40.02
76759;DHT22;65701;45.588;5.186;2023-09-12T09:50:53;31.02;39.87
76759;DHT22;65701;45.588;5.186;2023-09-12T09:53:26;31.19;39.55
76759;DHT22;65701;45.588;5.186;2023-09-12T09:55:51;31.31;39.69
76759;DHT22;65701;45.588;5.186;2023-09-12T09:58:17;31.41;39.45
76759;DHT22;65701;45.588;5.186;2023-09-12T10:00:43;31.48;38.90
76759;DHT22;65701;45.588;5.186;2023-09-12T10:03:10;31.55;38.48
76759;DHT22;65701;45.588;5.186;2023-09-12T10:05:38;31.60;38.37
76759;DHT22;65701;45.588;5.186;2023-09-12T10:08:06;31.69;38.34
76759;DHT22;65701;45.588;5.186;2023-09-12T10:10:35;31.81;37.97
76759;DHT22;65701;45.588;5.186;2023-09-12T10:13:03;31.82;37.05
76759;DHT22;65701;45.588;5.186;2023-09-12T10:15:30;31.85;36.42
76759;DHT22;65701;45.588;5.186;2023-09-12T10:18:02;31.88;36.57
76759;DHT22;65701;45.588;5.186;2023-09-12T10:20:45;31.90;35.87
76759;DHT22;65701;45.588;5.186;2023-09-12T10:23:36;31.85;35.69
76759;DHT22;65701;45.588;5.186;2023-09-12T10:26:09;31.92;35.76
76759;DHT22;65701;45.588;5.186;2023-09-12T10:28:37;31.84;35.51
76759;DHT22;65701;45.588;5.186;2023-09-12T10:31:05;31.84;35.60
76759;DHT22;65701;45.588;5.186;2023-09-12T10:33:31;31.90;35.86
76759;DHT22;65701;45.588;5.186;2023-09-12T10:35:57;31.99;35.99
76759;DHT22;65701;45.588;5.186;2023-09-12T10:38:26;32.05;35.78
76759;DHT22;65701;45.588;5.186;2023-09-12T10:40:53;32.01;35.71
76759;DHT22;65701;45.588;5.186;2023-09-12T10:43:20;31.99;35.74
76759;DHT22;65701;45.588;5.186;2023-09-12T10:45:48;32.04;35.89
76759;DHT22;65701;45.588;5.186;2023-09-12T10:48:14;32.04;36.27
76759;DHT22;65701;45.588;5.186;2023-09-12T10:50:40;32.15;36.55
76759;DHT22;65701;45.588;5.186;2023-09-12T10:53:16;32.20;36.39
76759;DHT22;65701;45.588;5.186;2023-09-12T10:55:42;32.22;36.70
76759;DHT22;65701;45.588;5.186;2023-09-12T10:58:22;32.22;37.15
76759;DHT22;65701;45.588;5.186;2023-09-12T11:03:52;32.10;37.35
76759;DHT22;65701;45.588;5.186;2023-09-12T11:06:22;32.20;37.86
76759;DHT22;65701;45.588;5.186;2023-09-12T11:11:40;32.39;38.12
76759;DHT22;65701;45.588;5.186;2023-09-12T11:14:07;32.39;38.16
76759;DHT22;65701;45.588;5.186;2023-09-12T11:16:33;32.43;38.59
76759;DHT22;65701;45.588;5.186;2023-09-12T11:19:16;32.49;38.40
76759;DHT22;65701;45.588;5.186;2023-09-12T11:21:46;32.56;38.37
76759;DHT22;65701;45.588;5.186;2023-09-12T11:24:13;32.56;38.26
76759;DHT22;65701;45.588;5.186;2023-09-12T11:26:56;32.56;37.09
76759;DHT22;65701;45.588;5.186;2023-09-12T11:29:36;32.53;36.28
76759;DHT22;65701;45.588;5.186;2023-09-12T11:32:02;32.36;35.89
76759;DHT22;65701;45.588;5.186;2023-09-12T11:34:30;32.39;35.96
76759;DHT22;65701;45.588;5.186;2023-09-12T11:37:02;32.23;35.97
76759;DHT22;65701;45.588;5.186;2023-09-12T11:39:30;32.19;36.09
76759;DHT22;65701;45.588;5.186;2023-09-12T11:41:58;32.24;36.21
76759;DHT22;65701;45.588;5.186;2023-09-12T11:44:24;32.29;36.23
76759;DHT22;65701;45.588;5.186;2023-09-12T11:46:50;32.24;36.25
76759;DHT22;65701;45.588;5.186;2023-09-12T11:49:17;32.16;35.93
76759;DHT22;65701;45.588;5.186;2023-09-12T11:51:51;32.13;35.65
76759;DHT22;65701;45.588;5.186;2023-09-12T11:54:18;31.96;35.60
76759;DHT22;65701;45.588;5.186;2023-09-12T11:56:46;31.85;35.54
76759;DHT22;65701;45.588;5.186;2023-09-12T11:59:12;31.79;36.00
76759;DHT22;65701;45.588;5.186;2023-09-12T12:01:37;31.79;36.48
76759;DHT22;65701;45.588;5.186;2023-09-12T12:04:03;31.82;36.26
76759;DHT22;65701;45.588;5.186;2023-09-12T12:06:30;31.90;36.32
76759;DHT22;65701;45.588;5.186;2023-09-12T12:08:55;31.96;36.41
76759;DHT22;65701;45.588;5.186;2023-09-12T12:11:21;32.05;36.37
76759;DHT22;65701;45.588;5.186;2023-09-12T12:13:46;32.06;36.73
76759;DHT22;65701;45.588;5.186;2023-09-12T12:16:16;32.17;36.78
76759;DHT22;65701;45.588;5.186;2023-09-12T12:18:42;32.20;35.65
76759;DHT22;65701;45.588;5.186;2023-09-12T12:21:07;32.26;34.78
76759;DHT22;65701;45.588;5.186;2023-09-12T12:23:33;32.26;34.25
76759;DHT22;65701;45.588;5.186;2023-09-12T12:26:09;32.27;33.56
76759;DHT22;65701;45.588;5.186;2023-09-12T12:28:35;32.27;33.33
76759;DHT22;65701;45.588;5.186;2023-09-12T12:31:01;32.30;33.71
76759;DHT22;65701;45.588;5.186;2023-09-12T12:33:27;32.20;33.50
76759;DHT22;65701;45.588;5.186;2023-09-12T12:36:04;32.15;33.55
76759;DHT22;65701;45.588;5.186;2023-09-12T12:38:36;32.15;33.44
76759;DHT22;65701;45.588;5.186;2023-09-12T12:41:02;32.22;33.85
76759;DHT22;65701;45.588;5.186;2023-09-12T12:43:27;32.23;33.93
76759;DHT22;65701;45.588;5.186;2023-09-12T12:45:54;32.32;34.04
76759;DHT22;65701;45.588;5.186;2023-09-12T12:48:30;32.34;34.10
76759;DHT22;65701;45.588;5.186;2023-09-12T12:50:56;32.27;33.54
76759;DHT22;65701;45.588;5.186;2023-09-12T12:53:41;32.16;33.49
76759;DHT22;65701;45.588;5.186;2023-09-12T12:56:07;32.13;33.83
76759;DHT22;65701;45.588;5.186;2023-09-12T12:58:33;32.05;33.60
76759;DHT22;65701;45.588;5.186;2023-09-12T13:01:00;31.92;33.67
76759;DHT22;65701;45.588;5.186;2023-09-12T13:03:26;31.84;33.22
76759;DHT22;65701;45.588;5.186;2023-09-12T13:05:51;31.85;32.95
76759;DHT22;65701;45.588;5.186;2023-09-12T13:08:17;31.75;32.77
76759;DHT22;65701;45.588;5.186;2023-09-12T13:10:43;31.61;32.62
76759;DHT22;65701;45.588;5.186;2023-09-12T13:13:09;31.60;32.72
76759;DHT22;65701;45.588;5.186;2023-09-12T13:15:35;31.64;33.59
76759;DHT22;65701;45.588;5.186;2023-09-12T13:18:00;31.61;33.76
76759;DHT22;65701;45.588;5.186;2023-09-12T13:20:26;31.72;33.87
76759;DHT22;65701;45.588;5.186;2023-09-12T13:22:52;31.74;33.87
76759;DHT22;65701;45.588;5.186;2023-09-12T13:25:17;31.75;34.41
76759;DHT22;65701;45.588;5.186;2023-09-12T13:27:43;31.77;34.70
76759;DHT22;65701;45.588;5.186;2023-09-12T13:30:08;31.67;34.62
76759;DHT22;65701;45.588;5.186;2023-09-12T13:32:34;31.65;34.89
76759;DHT22;65701;45.588;5.186;2023-09-12T13:34:59;31.57;34.84
76759;DHT22;65701;45.588;5.186;2023-09-12T13:37:25;31.62;34.75
76759;DHT22;65701;45.588;5.186;2023-09-12T13:39:53;31.43;34.19
76759;DHT22;65701;45.588;5.186;2023-09-12T13:42:18;31.38;34.11
76759;DHT22;65701;45.588;5.186;2023-09-12T13:44:46;31.38;34.11
76759;DHT22;65701;45.588;5.186;2023-09-12T13:47:11;31.48;34.53
76759;DHT22;65701;45.588;5.186;2023-09-12T13:49:37;31.44;34.46
76759;DHT22;65701;45.588;5.186;2023-09-12T13:52:03;31.43;34.38
76759;DHT22;65701;45.588;5.186;2023-09-12T13:54:28;31.30;34.19
76759;DHT22;65701;45.588;5.186;2023-09-12T13:56:54;31.19;34.28
76759;DHT22;65701;45.588;5.186;2023-09-12T13:59:19;31.07;34.24
76759;DHT22;65701;45.588;5.186;2023-09-12T14:01:46;30.96;34.54
76759;DHT22;65701;45.588;5.186;2023-09-12T14:04:11;30.90;34.83
76759;DHT22;65701;45.588;5.186;2023-09-12T14:06:38;30.86;35.13
76759;DHT22;65701;45.588;5.186;2023-09-12T14:09:04;30.86;35.46
76759;DHT22;65701;45.588;5.186;2023-09-12T14:11:30;30.86;36.02
76759;DHT22;65701;45.588;5.186;2023-09-12T14:13:56;30.80;36.22
76759;DHT22;65701;45.588;5.186;2023-09-12T14:16:21;30.78;36.35
76759;DHT22;65701;45.588;5.186;2023-09-12T14:18:47;30.74;36.39
76759;DHT22;65701;45.588;5.186;2023-09-12T14:21:12;30.71;36.25
76759;DHT22;65701;45.588;5.186;2023-09-12T14:23:38;30.64;36.48
76759;DHT22;65701;45.588;5.186;2023-09-12T14:26:03;30.55;36.68
76759;DHT22;65701;45.588;5.186;2023-09-12T14:28:29;30.45;37.12
76759;DHT22;65701;45.588;5.186;2023-09-12T14:30:57;30.37;37.49
76759;DHT22;65701;45.588;5.186;2023-09-12T14:33:22;30.28;37.93
76759;DHT22;65701;45.588;5.186;2023-09-12T14:35:48;30.17;38.38
76759;DHT22;65701;45.588;5.186;2023-09-12T14:38:13;30.13;38.62
76759;DHT22;65701;45.588;5.186;2023-09-12T14:40:39;30.06;39.21
76759;DHT22;65701;45.588;5.186;2023-09-12T14:43:05;29.99;39.36
76759;DHT22;65701;45.588;5.186;2023-09-12T14:45:30;29.95;39.84
76759;DHT22;65701;45.588;5.186;2023-09-12T14:47:56;29.88;40.12
76759;DHT22;65701;45.588;5.186;2023-09-12T14:50:23;29.83;40.42
76759;DHT22;65701;45.588;5.186;2023-09-12T14:52:49;29.76;40.68
76759;DHT22;65701;45.588;5.186;2023-09-12T14:55:15;29.68;40.84
76759;DHT22;65701;45.588;5.186;2023-09-12T14:57:41;29.55;40.78
76759;DHT22;65701;45.588;5.186;2023-09-12T15:00:07;29.50;40.93
76759;DHT22;65701;45.588;5.186;2023-09-12T15:02:32;29.44;41.02
76759;DHT22;65701;45.588;5.186;2023-09-12T15:04:59;29.27;41.37
76759;DHT22;65701;45.588;5.186;2023-09-12T15:07:24;29.17;41.69
76759;DHT22;65701;45.588;5.186;2023-09-12T15:09:50;29.10;42.00
76759;DHT22;65701;45.588;5.186;2023-09-12T15:12:15;29.04;42.26
76759;DHT22;65701;45.588;5.186;2023-09-12T15:14:41;28.99;42.43
76759;DHT22;65701;45.588;5.186;2023-09-12T15:17:07;28.92;42.78
76759;DHT22;65701;45.588;5.186;2023-09-12T15:19:32;28.93;42.90
76759;DHT22;65701;45.588;5.186;2023-09-12T15:21:58;28.73;43.29
76759;DHT22;65701;45.588;5.186;2023-09-12T15:24:23;28.69;43.85
76759;DHT22;65701;45.588;5.186;2023-09-12T15:26:49;28.69;43.94
76759;DHT22;65701;45.588;5.186;2023-09-12T15:29:14;28.59;44.32
76759;DHT22;65701;45.588;5.186;2023-09-12T15:31:40;28.52;44.60
76759;DHT22;65701;45.588;5.186;2023-09-12T15:34:05;28.48;44.71
76759;DHT22;65701;45.588;5.186;2023-09-12T15:36:39;28.42;44.84
76759;DHT22;65701;45.588;5.186;2023-09-12T15:39:05;28.40;45.21
76759;DHT22;65701;45.588;5.186;2023-09-12T15:41:31;28.38;45.06
76759;DHT22;65701;45.588;5.186;2023-09-12T15:43:56;28.37;45.24
76759;DHT22;65701;45.588;5.186;2023-09-12T15:46:22;28.33;45.39
76759;DHT22;65701;45.588;5.186;2023-09-12T15:48:48;28.31;45.53
76759;DHT22;65701;45.588;5.186;2023-09-12T15:51:14;28.18;45.90
76759;DHT22;65701;45.588;5.186;2023-09-12T15:53:41;28.18;46.18
76759;DHT22;65701;45.588;5.186;2023-09-12T15:56:06;28.16;46.06
76759;DHT22;65701;45.588;5.186;2023-09-12T15:58:32;27.96;46.70
76759;DHT22;65701;45.588;5.186;2023-09-12T16:00:57;28.03;47.51
76759;DHT22;65701;45.588;5.186;2023-09-12T16:03:25;27.97;47.96
76759;DHT22;65701;45.588;5.186;2023-09-12T16:05:50;28.00;48.04
76759;DHT22;65701;45.588;5.186;2023-09-12T16:08:16;27.92;48.61
76759;DHT22;65701;45.588;5.186;2023-09-12T16:10:41;27.86;49.07
76759;DHT22;65701;45.588;5.186;2023-09-12T16:13:08;27.80;49.50
76759;DHT22;65701;45.588;5.186;2023-09-12T16:15:34;27.80;49.58
76759;DHT22;65701;45.588;5.186;2023-09-12T16:17:59;27.73;49.99
76759;DHT22;65701;45.588;5.186;2023-09-12T16:20:25;27.73;50.33
76759;DHT22;65701;45.588;5.186;2023-09-12T16:22:50;27.67;50.50
76759;DHT22;65701;45.588;5.186;2023-09-12T16:25:15;27.67;50.74
76759;DHT22;65701;45.588;5.186;2023-09-12T16:27:41;27.67;50.74
76759;DHT22;65701;45.588;5.186;2023-09-12T16:30:07;27.66;51.01
76759;DHT22;65701;45.588;5.186;2023-09-12T16:32:34;27.62;51.84
76759;DHT22;65701;45.588;5.186;2023-09-12T16:35:00;27.59;51.72
76759;DHT22;65701;45.588;5.186;2023-09-12T16:37:26;27.56;52.06
76759;DHT22;65701;45.588;5.186;2023-09-12T16:39:52;27.58;52.35
76759;DHT22;65701;45.588;5.186;2023-09-12T16:42:18;27.58;52.44
76759;DHT22;65701;45.588;5.186;2023-09-12T16:44:43;27.59;52.14
76759;DHT22;65701;45.588;5.186;2023-09-12T16:47:09;27.61;52.27
76759;DHT22;65701;45.588;5.186;2023-09-12T16:50:00;27.58;52.32
76759;DHT22;65701;45.588;5.186;2023-09-12T16:52:32;27.56;52.48
76759;DHT22;65701;45.588;5.186;2023-09-12T16:55:02;27.53;52.44
76759;DHT22;65701;45.588;5.186;2023-09-12T16:57:28;27.51;52.61
76759;DHT22;65701;45.588;5.186;2023-09-12T16:59:56;27.48;52.60
76759;DHT22;65701;45.588;5.186;2023-09-12T17:02:22;27.42;53.08
76759;DHT22;65701;45.588;5.186;2023-09-12T17:04:47;27.41;53.23
76759;DHT22;65701;45.588;5.186;2023-09-12T17:07:13;27.38;52.92
76759;DHT22;65701;45.588;5.186;2023-09-12T17:09:39;27.37;53.07
76759;DHT22;65701;45.588;5.186;2023-09-12T17:12:06;27.34;53.31
76759;DHT22;65701;45.588;5.186;2023-09-12T17:14:32;27.31;53.45
76759;DHT22;65701;45.588;5.186;2023-09-12T17:16:57;27.28;53.14
76759;DHT22;65701;45.588;5.186;2023-09-12T17:19:24;27.27;53.42
76759;DHT22;65701;45.588;5.186;2023-09-12T17:21:49;27.25;53.46
76759;DHT22;65701;45.588;5.186;2023-09-12T17:24:15;27.20;53.79
76759;DHT22;65701;45.588;5.186;2023-09-12T17:26:41;27.21;53.51
76759;DHT22;65701;45.588;5.186;2023-09-12T17:29:06;27.17;53.87
76759;DHT22;65701;45.588;5.186;2023-09-12T17:31:32;27.10;54.01
76759;DHT22;65701;45.588;5.186;2023-09-12T17:33:57;27.12;53.94
76759;DHT22;65701;45.588;5.186;2023-09-12T17:36:22;27.06;54.44
76759;DHT22;65701;45.588;5.186;2023-09-12T17:38:48;27.07;54.54
76759;DHT22;65701;45.588;5.186;2023-09-12T17:41:15;27.03;54.77
76759;DHT22;65701;45.588;5.186;2023-09-12T17:43:40;26.98;55.14
76759;DHT22;65701;45.588;5.186;2023-09-12T17:46:06;26.96;55.47
76759;DHT22;65701;45.588;5.186;2023-09-12T17:48:31;26.97;54.79
76759;DHT22;65701;45.588;5.186;2023-09-12T17:50:57;26.96;54.75
76759;DHT22;65701;45.588;5.186;2023-09-12T17:53:25;26.98;54.46
76759;DHT22;65701;45.588;5.186;2023-09-12T17:55:53;26.97;54.30
76759;DHT22;65701;45.588;5.186;2023-09-12T17:58:19;26.98;54.01
76759;DHT22;65701;45.588;5.186;2023-09-12T18:00:55;26.96;53.94
76759;DHT22;65701;45.588;5.186;2023-09-12T18:03:21;26.94;54.14
76759;DHT22;65701;45.588;5.186;2023-09-12T18:05:46;26.91;54.25
76759;DHT22;65701;45.588;5.186;2023-09-12T18:08:12;26.90;53.99
76759;DHT22;65701;45.588;5.186;2023-09-12T18:10:38;26.90;53.92
76759;DHT22;65701;45.588;5.186;2023-09-12T18:13:03;26.89;54.25
76759;DHT22;65701;45.588;5.186;2023-09-12T18:15:29;26.87;54.51
76759;DHT22;65701;45.588;5.186;2023-09-12T18:17:54;26.83;54.57
76759;DHT22;65701;45.588;5.186;2023-09-12T18:20:20;26.80;55.10
76759;DHT22;65701;45.588;5.186;2023-09-12T18:22:45;26.75;55.80
76759;DHT22;65701;45.588;5.186;2023-09-12T18:25:11;26.72;56.12
76759;DHT22;65701;45.588;5.186;2023-09-12T18:27:37;26.66;55.58
76759;DHT22;65701;45.588;5.186;2023-09-12T18:30:04;26.66;55.28
76759;DHT22;65701;45.588;5.186;2023-09-12T18:32:30;26.68;55.01
76759;DHT22;65701;45.588;5.186;2023-09-12T18:34:55;26.66;54.86
76759;DHT22;65701;45.588;5.186;2023-09-12T18:37:23;26.64;54.83
76759;DHT22;65701;45.588;5.186;2023-09-12T18:39:48;26.63;54.91
76759;DHT22;65701;45.588;5.186;2023-09-12T18:42:14;26.60;54.88
76759;DHT22;65701;45.588;5.186;2023-09-12T18:44:39;26.55;54.93
76759;DHT22;65701;45.588;5.186;2023-09-12T18:47:04;26.52;55.11
76759;DHT22;65701;45.588;5.186;2023-09-12T18:49:30;26.49;55.29
76759;DHT22;65701;45.588;5.186;2023-09-12T18:51:55;26.41;55.53
76759;DHT22;65701;45.588;5.186;2023-09-12T18:54:21;26.39;55.78
76759;DHT22;65701;45.588;5.186;2023-09-12T18:56:48;26.34;56.29
76759;DHT22;65701;45.588;5.186;2023-09-12T18:59:14;26.28;56.67
76759;DHT22;65701;45.588;5.186;2023-09-12T19:01:40;26.21;57.04
76759;DHT22;65701;45.588;5.186;2023-09-12T19:04:25;26.14;57.79
76759;DHT22;65701;45.588;5.186;2023-09-12T19:06:52;26.07;57.85
76759;DHT22;65701;45.588;5.186;2023-09-12T19:11:58;25.94;58.30
76759;DHT22;65701;45.588;5.186;2023-09-12T19:14:30;25.87;58.89
76759;DHT22;65701;45.588;5.186;2023-09-12T19:17:00;25.81;59.37
76759;DHT22;65701;45.588;5.186;2023-09-12T19:19:37;25.67;59.70
76759;DHT22;65701;45.588;5.186;2023-09-12T19:22:03;25.56;59.59
76759;DHT22;65701;45.588;5.186;2023-09-12T19:24:29;25.45;59.92
76759;DHT22;65701;45.588;5.186;2023-09-12T19:26:55;25.32;60.13
76759;DHT22;65701;45.588;5.186;2023-09-12T19:29:23;25.24;60.22
76759;DHT22;65701;45.588;5.186;2023-09-12T19:31:49;25.18;60.15
76759;DHT22;65701;45.588;5.186;2023-09-12T19:34:18;25.12;60.17
76759;DHT22;65701;45.588;5.186;2023-09-12T19:36:44;25.10;60.07
76759;DHT22;65701;45.588;5.186;2023-09-12T19:39:10;25.10;60.15
76759;DHT22;65701;45.588;5.186;2023-09-12T19:41:35;25.03;60.30
76759;DHT22;65701;45.588;5.186;2023-09-12T19:44:01;25.03;60.38
76759;DHT22;65701;45.588;5.186;2023-09-12T19:46:26;24.99;60.72
76759;DHT22;65701;45.588;5.186;2023-09-12T19:48:52;24.95;61.57
76759;DHT22;65701;45.588;5.186;2023-09-12T19:51:18;24.91;61.74
76759;DHT22;65701;45.588;5.186;2023-09-12T19:53:43;24.87;61.49
76759;DHT22;65701;45.588;5.186;2023-09-12T19:56:09;24.84;61.43
76759;DHT22;65701;45.588;5.186;2023-09-12T19:58:35;24.81;61.38
76759;DHT22;65701;45.588;5.186;2023-09-12T20:01:02;24.76;61.34